Time;durP1;ratioP1;P1;durP2;ratioP2;P2;SDS_P1;SDS_P2;PMS_P1;PMS_P2;Temp;Humidity;BMP_temperature;BMP_pressure;BME280_temperature;BME280_humidity;BME280_pressure;Samples;Min_cycle;Max_cycle;Signal;HPM_P1;HPM_P2
2021/07/21 00:00:29;;;;;;;10.05;8.05;;;16.10;99.90;;;;;;5133396;27;20038;-55
2021/07/21 00:02:55;;;;;;;10.07;7.93;;;16.10;99.90;;;;;;5133608;27;20043;-55
2021/07/21 00:05:23;;;;;;;12.82;8.65;;;16.10;99.90;;;;;;5133504;27;20043;-55
2021/07/21 00:07:49;;;;;;;12.73;9.07;;;16.10;99.90;;;;;;5133445;27;20047;-56
2021/07/21 00:10:17;;;;;;;10.85;8.23;;;16.00;99.90;;;;;;5133707;27;20043;-56
2021/07/21 00:15:39;;;;;;;13.13;7.95;;;16.00;99.90;;;;;;5049160;28;20040;-55
2021/07/21 00:18:20;;;;;;;11.93;7.70;;;15.90;99.90;;;;;;5049768;28;20056;-56
2021/07/21 00:20:48;;;;;;;11.57;8.55;;;15.90;99.90;;;;;;5049988;28;20461;-55
2021/07/21 00:23:17;;;;;;;12.77;8.10;;;15.80;99.90;;;;;;5050026;28;20045;-56
2021/07/21 00:25:43;;;;;;;12.23;8.65;;;15.90;99.90;;;;;;5049751;28;20049;-55
2021/07/21 00:28:09;;;;;;;11.35;8.60;;;15.80;99.90;;;;;;5049576;28;20137;-55
2021/07/21 00:30:35;;;;;;;11.35;8.75;;;15.80;99.90;;;;;;5049739;28;20662;-55
2021/07/21 00:33:01;;;;;;;12.10;8.43;;;15.80;99.90;;;;;;5049636;28;20056;-56
2021/07/21 00:35:26;;;;;;;10.27;8.32;;;15.80;99.90;;;;;;5049672;28;20495;-55
2021/07/21 00:37:52;;;;;;;12.85;8.63;;;15.90;99.90;;;;;;5049594;28;20049;-56
2021/07/21 00:40:18;;;;;;;10.35;7.95;;;15.90;99.90;;;;;;5049412;28;20049;-55
2021/07/21 00:42:45;;;;;;;11.05;7.63;;;15.90;99.90;;;;;;5049640;28;20040;-55
2021/07/21 00:45:11;;;;;;;9.77;7.35;;;15.90;99.90;;;;;;5049522;28;20056;-56
2021/07/21 00:47:37;;;;;;;10.50;7.97;;;15.90;99.90;;;;;;5049549;28;20044;-55
2021/07/21 00:50:05;;;;;;;11.98;8.65;;;15.90;99.90;;;;;;5049562;28;20083;-56
2021/07/21 00:52:33;;;;;;;13.07;9.10;;;15.90;99.90;;;;;;5095991;28;20055;-56
2021/07/21 00:54:59;;;;;;;12.15;8.75;;;15.80;99.90;;;;;;5132568;28;20039;-55
2021/07/21 00:57:25;;;;;;;13.38;9.02;;;15.80;99.90;;;;;;5132557;28;20043;-56
2021/07/21 00:59:51;;;;;;;10.48;8.60;;;15.60;99.90;;;;;;5132662;28;20528;-55
2021/07/21 01:02:17;;;;;;;12.07;8.57;;;15.60;99.90;;;;;;5132741;28;20034;-56
2021/07/21 01:04:43;;;;;;;13.60;8.57;;;15.60;99.90;;;;;;5132422;28;20035;-56
2021/07/21 01:07:09;;;;;;;11.23;8.75;;;15.50;99.90;;;;;;5132868;28;20040;-56
2021/07/21 01:09:36;;;;;;;10.25;8.15;;;15.50;99.90;;;;;;5132589;28;20051;-55
2021/07/21 01:12:04;;;;;;;10.88;9.50;;;15.50;99.90;;;;;;5132483;28;20067;-55
2021/07/21 01:14:46;;;;;;;14.27;10.20;;;15.50;99.90;;;;;;5132513;28;20470;-56
2021/07/21 01:17:18;;;;;;;13.07;8.93;;;15.30;99.90;;;;;;5132402;28;20489;-56
2021/07/21 01:20:04;;;;;;;12.18;8.75;;;15.40;99.90;;;;;;5132590;28;20035;-55
2021/07/21 01:22:31;;;;;;;9.25;8.13;;;15.40;99.90;;;;;;5132433;28;20043;-55
2021/07/21 01:25:16;;;;;;;8.95;7.55;;;15.30;99.90;;;;;;5132415;27;20039;-56
2021/07/21 01:27:52;;;;;;;11.05;8.48;;;15.40;99.90;;;;;;5136717;27;20075;-56
2021/07/21 01:30:28;;;;;;;14.73;9.20;;;15.40;99.90;;;;;;5136219;27;20035;-55
2021/07/21 01:33:00;;;;;;;10.13;7.55;;;15.40;99.90;;;;;;5136014;27;20055;-56
2021/07/21 01:35:34;;;;;;;11.43;8.55;;;15.40;99.90;;;;;;5136396;27;20039;-55
2021/07/21 01:38:09;;;;;;;13.10;8.48;;;15.30;99.90;;;;;;5136201;27;20043;-56
2021/07/21 01:40:41;;;;;;;12.73;8.43;;;15.30;99.90;;;;;;5136213;27;20050;-56
2021/07/21 01:43:11;;;;;;;13.90;8.77;;;15.30;99.90;;;;;;5135994;27;20039;-55
2021/07/21 01:45:40;;;;;;;12.95;9.35;;;15.30;99.90;;;;;;5135962;27;20491;-55
2021/07/21 01:48:08;;;;;;;15.35;10.80;;;15.20;99.90;;;;;;5136076;27;20047;-56
2021/07/21 01:50:35;;;;;;;13.77;9.55;;;15.20;99.90;;;;;;5135868;27;20527;-56
2021/07/21 01:53:02;;;;;;;13.10;9.93;;;15.30;99.90;;;;;;5135867;27;20511;-56
2021/07/21 01:55:28;;;;;;;12.10;9.43;;;15.40;99.90;;;;;;5135874;27;20043;-55
2021/07/21 01:57:56;;;;;;;12.15;9.75;;;15.40;99.90;;;;;;5135691;27;20121;-56
2021/07/21 02:00:22;;;;;;;12.70;9.65;;;15.40;99.90;;;;;;5135861;27;20039;-56
2021/07/21 02:02:50;;;;;;;12.85;9.27;;;15.30;99.90;;;;;;5116976;27;20047;-56
2021/07/21 02:05:17;;;;;;;14.07;9.05;;;15.40;99.90;;;;;;5135562;27;20084;-56
2021/07/21 02:07:44;;;;;;;11.80;8.75;;;15.40;99.90;;;;;;5135560;27;20434;-55
2021/07/21 02:10:17;;;;;;;13.00;9.80;;;15.50;99.90;;;;;;5135590;27;20040;-55
2021/07/21 02:12:44;;;;;;;11.98;9.98;;;15.50;99.90;;;;;;5135504;27;20039;-56
2021/07/21 02:15:11;;;;;;;11.82;9.40;;;15.50;99.90;;;;;;5135656;27;20039;-55
2021/07/21 02:17:40;;;;;;;14.30;9.85;;;15.50;99.90;;;;;;5135384;27;20051;-56
2021/07/21 02:20:08;;;;;;;13.18;10.63;;;15.40;99.90;;;;;;5135598;27;20047;-55
2021/07/21 02:22:34;;;;;;;12.10;9.00;;;15.40;99.90;;;;;;5135570;27;20152;-55
2021/07/21 02:25:01;;;;;;;15.30;9.93;;;15.40;99.90;;;;;;5135469;27;20043;-55
2021/07/21 02:27:27;;;;;;;13.70;9.68;;;15.40;99.90;;;;;;5116211;27;20047;-55
2021/07/21 02:29:53;;;;;;;13.02;9.68;;;15.30;99.90;;;;;;5135158;27;20066;-55
2021/07/21 02:32:22;;;;;;;11.65;8.77;;;15.40;99.90;;;;;;5134997;27;20536;-55
2021/07/21 02:34:48;;;;;;;15.43;10.15;;;15.30;99.90;;;;;;5135372;27;20043;-55
2021/07/21 02:37:19;;;;;;;13.07;9.30;;;15.30;99.90;;;;;;5134317;27;20508;-55
2021/07/21 02:39:48;;;;;;;16.42;11.50;;;15.40;99.90;;;;;;5134749;27;20043;-56
2021/07/21 02:42:16;;;;;;;13.15;9.32;;;15.30;99.90;;;;;;5135054;27;20047;-55
2021/07/21 02:44:43;;;;;;;17.80;10.27;;;15.30;99.90;;;;;;5135021;27;20047;-55
2021/07/21 02:47:10;;;;;;;13.00;9.77;;;15.30;99.90;;;;;;5134742;27;20046;-56
2021/07/21 02:49:37;;;;;;;13.63;10.07;;;15.30;99.90;;;;;;5134698;27;20043;-56
2021/07/21 02:52:09;;;;;;;13.57;9.02;;;15.40;99.90;;;;;;5134689;27;20118;-55
2021/07/21 02:55:00;;;;;;;14.85;9.52;;;15.30;99.90;;;;;;5134778;27;20138;-55
2021/07/21 02:57:52;;;;;;;12.70;9.40;;;15.40;99.90;;;;;;5134686;27;20507;-56
2021/07/21 03:00:21;;;;;;;13.55;9.27;;;15.30;99.90;;;;;;5031244;28;20401;-56
2021/07/21 03:02:49;;;;;;;12.93;9.40;;;15.30;99.90;;;;;;5031203;28;20059;-55
2021/07/21 03:05:18;;;;;;;14.82;10.27;;;15.30;99.90;;;;;;5031329;28;20562;-55
2021/07/21 03:07:48;;;;;;;;;;;15.30;99.90;;;;;;5031634;28;20064;-56
2021/07/21 03:10:15;;;;;;;15.68;10.25;;;15.30;99.90;;;;;;5031177;28;19998;-55
2021/07/21 03:12:45;;;;;;;13.32;8.82;;;15.30;99.90;;;;;;5031121;28;20045;-55
2021/07/21 03:15:13;;;;;;;16.08;10.13;;;15.40;99.90;;;;;;5031027;28;20053;-55
2021/07/21 03:17:42;;;;;;;15.90;10.35;;;15.40;99.90;;;;;;5031031;28;20049;-56
2021/07/21 03:20:10;;;;;;;14.38;10.23;;;15.40;99.90;;;;;;5030810;28;20080;-56
2021/07/21 03:22:38;;;;;;;14.23;10.37;;;15.40;99.90;;;;;;5030957;28;20455;-55
2021/07/21 03:25:07;;;;;;;17.50;10.93;;;15.30;99.90;;;;;;5030927;28;20049;-55
2021/07/21 03:27:34;;;;;;;;;;;15.30;99.90;;;;;;5031182;28;20049;-56
2021/07/21 03:30:00;;;;;;;13.98;10.25;;;15.40;99.90;;;;;;5030695;28;20070;-55
2021/07/21 03:32:27;;;;;;;14.95;10.20;;;15.40;99.90;;;;;;5030571;28;20065;-56
2021/07/21 03:34:54;;;;;;;15.80;9.80;;;15.40;99.90;;;;;;5030658;28;20123;-56
2021/07/21 03:37:21;;;;;;;15.68;11.07;;;15.50;99.90;;;;;;5086862;27;20051;-55
2021/07/21 03:39:54;;;;;;;12.95;10.02;;;15.50;99.90;;;;;;5133742;27;20047;-55
2021/07/21 03:42:25;;;;;;;12.77;9.38;;;15.60;99.90;;;;;;5133694;27;20043;-56
2021/07/21 03:44:54;;;;;;;13.57;10.10;;;15.60;99.90;;;;;;5133780;27;20487;-55
2021/07/21 03:47:21;;;;;;;13.65;10.40;;;15.60;99.90;;;;;;5133665;27;20377;-56
2021/07/21 03:49:47;;;;;;;14.95;11.27;;;15.50;99.90;;;;;;5132519;27;20552;-56
2021/07/21 03:52:14;;;;;;;14.52;10.73;;;15.50;99.90;;;;;;5133592;27;20066;-56
2021/07/21 03:54:41;;;;;;;16.35;10.40;;;15.50;99.90;;;;;;5133429;27;20046;-56
2021/07/21 03:57:07;;;;;;;16.52;10.82;;;15.40;99.90;;;;;;5133538;27;20458;-55
2021/07/21 03:59:36;;;;;;;17.38;10.63;;;15.50;99.90;;;;;;5133392;27;20035;-55
2021/07/21 04:02:02;;;;;;;16.35;10.82;;;15.50;99.90;;;;;;5133309;27;20396;-55
2021/07/21 04:04:29;;;;;;;13.25;9.82;;;15.50;99.90;;;;;;5133550;27;20038;-55
2021/07/21 04:06:55;;;;;;;12.60;9.88;;;15.50;99.90;;;;;;5133124;27;20055;-56
2021/07/21 04:09:23;;;;;;;14.00;10.25;;;15.50;99.90;;;;;;5133281;27;20065;-56
2021/07/21 04:11:53;;;;;;;13.50;10.05;;;15.50;99.90;;;;;;5133307;27;20035;-55
2021/07/21 04:14:22;;;;;;;17.05;11.30;;;15.60;99.90;;;;;;5133097;27;20534;-55
2021/07/21 04:16:51;;;;;;;16.48;11.43;;;15.50;99.90;;;;;;5132980;27;20035;-56
2021/07/21 04:19:18;;;;;;;18.65;11.63;;;15.50;99.90;;;;;;5133317;27;20460;-55
2021/07/21 04:21:48;;;;;;;15.05;11.38;;;15.50;99.90;;;;;;5132940;27;20493;-55
2021/07/21 04:24:15;;;;;;;17.63;11.40;;;15.40;99.90;;;;;;5132816;27;20538;-56
2021/07/21 04:26:41;;;;;;;15.52;11.40;;;15.40;99.90;;;;;;5132820;27;20484;-55
2021/07/21 04:29:15;;;;;;;16.80;11.75;;;15.40;99.90;;;;;;5133008;27;20043;-56
2021/07/21 04:31:43;;;;;;;18.58;12.43;;;15.30;99.90;;;;;;5132993;27;20092;-56
2021/07/21 04:34:11;;;;;;;19.63;11.60;;;15.40;99.90;;;;;;5132789;27;20498;-55
2021/07/21 04:36:39;;;;;;;15.35;12.07;;;15.40;99.90;;;;;;5133094;27;20540;-55
2021/07/21 04:39:06;;;;;;;14.77;11.65;;;15.40;99.90;;;;;;5133017;27;20055;-55
2021/07/21 04:41:33;;;;;;;14.32;11.27;;;15.40;99.90;;;;;;5133026;28;20047;-56
2021/07/21 04:44:01;;;;;;;21.25;11.77;;;15.50;99.90;;;;;;5132966;28;20047;-55
2021/07/21 04:46:27;;;;;;;15.57;10.98;;;15.40;99.90;;;;;;5132726;28;20047;-56
2021/07/21 04:48:54;;;;;;;17.02;11.82;;;15.50;99.90;;;;;;5132734;28;20047;-55
2021/07/21 04:51:22;;;;;;;16.27;12.93;;;15.50;99.90;;;;;;5114340;28;20082;-55
2021/07/21 04:53:53;;;;;;;15.25;11.32;;;15.40;99.90;;;;;;5132720;28;20039;-56
2021/07/21 04:56:20;;;;;;;18.73;13.05;;;15.40;99.90;;;;;;5132907;28;20051;-55
2021/07/21 04:58:46;;;;;;;19.23;11.75;;;15.50;99.90;;;;;;5132922;28;20047;-55
2021/07/21 05:01:13;;;;;;;16.73;11.93;;;15.50;99.90;;;;;;5134873;27;20070;-55
2021/07/21 05:03:39;;;;;;;16.85;11.48;;;15.50;99.90;;;;;;5136905;27;20114;-56
2021/07/21 05:06:05;;;;;;;17.10;12.65;;;15.50;99.90;;;;;;5136852;27;20039;-56
2021/07/21 05:08:30;;;;;;;15.55;11.57;;;15.60;99.90;;;;;;5136705;27;20544;-55
2021/07/21 05:10:56;;;;;;;15.88;11.27;;;15.60;99.90;;;;;;5136745;27;20032;-56
2021/07/21 05:13:22;;;;;;;17.75;12.25;;;15.70;99.90;;;;;;5118442;27;20084;-56
2021/07/21 05:15:48;;;;;;;15.65;12.05;;;15.80;99.90;;;;;;5136513;27;20039;-56
2021/07/21 05:18:15;;;;;;;15.55;11.93;;;15.80;99.90;;;;;;5136563;27;20461;-55
2021/07/21 05:20:41;;;;;;;19.50;12.60;;;15.90;99.90;;;;;;5136539;27;20095;-55
2021/07/21 05:23:07;;;;;;;13.40;11.27;;;15.90;99.90;;;;;;5136580;27;20039;-56
2021/07/21 05:25:35;;;;;;;17.80;11.73;;;16.00;99.90;;;;;;5136564;27;20400;-56
2021/07/21 05:28:04;;;;;;;15.55;12.13;;;16.00;99.90;;;;;;5136211;27;20046;-56
2021/07/21 05:30:29;;;;;;;15.52;12.23;;;16.20;99.90;;;;;;5136280;27;20104;-56
2021/07/21 05:32:55;;;;;;;17.33;12.10;;;16.20;99.90;;;;;;5136284;27;20484;-55
2021/07/21 05:35:21;;;;;;;14.30;11.80;;;16.30;99.90;;;;;;5117614;27;20184;-56
2021/07/21 05:37:46;;;;;;;14.32;11.02;;;16.30;99.90;;;;;;5136123;27;20051;-55
2021/07/21 05:40:12;;;;;;;16.90;11.70;;;16.30;99.90;;;;;;5136169;27;20131;-56
2021/07/21 05:42:38;;;;;;;17.02;11.35;;;16.40;99.90;;;;;;5136041;27;20473;-55
2021/07/21 05:45:04;;;;;;;15.27;10.90;;;16.40;99.90;;;;;;5136061;27;20104;-56
2021/07/21 05:47:30;;;;;;;17.40;11.23;;;16.50;99.90;;;;;;5136093;27;20051;-56
2021/07/21 05:49:55;;;;;;;17.38;11.32;;;16.50;99.90;;;;;;5136026;27;20346;-56
2021/07/21 05:52:21;;;;;;;14.80;11.23;;;16.60;99.90;;;;;;5135996;27;20043;-56
2021/07/21 05:54:47;;;;;;;18.00;11.23;;;16.60;99.90;;;;;;5135737;27;20236;-56
2021/07/21 05:57:13;;;;;;;15.18;11.43;;;16.60;99.90;;;;;;5135770;27;20058;-55
2021/07/21 05:59:39;;;;;;;15.38;11.35;;;16.70;99.90;;;;;;5135653;27;20043;-55
2021/07/21 06:02:05;;;;;;;14.60;11.18;;;16.80;99.90;;;;;;5135830;27;20047;-56
2021/07/21 06:04:31;;;;;;;16.85;11.38;;;16.90;99.90;;;;;;5135782;27;20085;-56
2021/07/21 06:06:56;;;;;;;13.80;10.32;;;16.90;99.90;;;;;;5117387;27;20051;-56
2021/07/21 06:09:23;;;;;;;15.73;11.95;;;17.00;99.90;;;;;;5135823;27;20075;-56
2021/07/21 06:11:49;;;;;;;12.90;10.88;;;17.00;99.90;;;;;;5134905;27;20043;-56
2021/07/21 06:14:15;;;;;;;13.00;11.25;;;17.00;99.90;;;;;;5135451;27;20047;-55
2021/07/21 06:16:40;;;;;;;13.75;10.90;;;17.10;99.90;;;;;;5135477;27;20397;-56
2021/07/21 06:19:08;;;;;;;13.70;10.75;;;17.40;99.90;;;;;;5135256;27;20488;-55
2021/07/21 06:21:34;;;;;;;13.00;10.02;;;17.40;99.90;;;;;;5135361;27;20042;-55
2021/07/21 06:24:00;;;;;;;10.93;9.38;;;17.60;99.90;;;;;;5135404;27;20039;-56
2021/07/21 06:26:26;;;;;;;10.65;8.73;;;17.60;99.90;;;;;;5135104;27;20070;-56
2021/07/21 06:28:51;;;;;;;10.25;8.38;;;17.60;99.90;;;;;;5135146;27;20461;-55
2021/07/21 06:31:17;;;;;;;13.43;9.13;;;17.70;99.90;;;;;;5135309;27;20051;-56
2021/07/21 06:33:43;;;;;;;11.07;8.57;;;17.70;99.90;;;;;;5134673;27;20485;-55
2021/07/21 06:36:09;;;;;;;10.75;8.10;;;17.70;99.90;;;;;;5135029;27;20114;-56
2021/07/21 06:38:35;;;;;;;10.40;7.85;;;17.70;99.90;;;;;;5135105;27;20122;-56
2021/07/21 06:41:01;;;;;;;11.82;8.35;;;17.80;99.90;;;;;;5134973;27;20389;-56
2021/07/21 06:43:27;;;;;;;10.52;8.25;;;17.80;99.90;;;;;;5134781;27;20035;-55
2021/07/21 06:45:53;;;;;;;11.23;8.30;;;18.00;99.90;;;;;;5135067;27;20050;-56
2021/07/21 06:48:19;;;;;;;10.40;8.68;;;18.00;99.90;;;;;;5134912;27;20366;-56
2021/07/21 06:50:44;;;;;;;10.88;8.35;;;18.00;99.90;;;;;;5134813;27;20043;-56
2021/07/21 06:53:10;;;;;;;10.65;8.57;;;18.20;99.90;;;;;;5134851;27;20412;-56
2021/07/21 06:55:36;;;;;;;10.52;8.05;;;18.40;99.90;;;;;;5134744;27;20035;-56
2021/07/21 06:58:03;;;;;;;10.23;7.72;;;18.50;99.90;;;;;;5134581;27;20518;-56
2021/07/21 07:00:29;;;;;;;11.52;7.57;;;18.60;99.90;;;;;;5134993;27;20051;-56
2021/07/21 07:02:55;;;;;;;10.07;7.90;;;18.80;99.90;;;;;;5134816;27;20047;-55
2021/07/21 07:05:21;;;;;;;8.63;7.30;;;18.80;99.90;;;;;;5134711;27;20118;-56
2021/07/21 07:07:47;;;;;;;10.02;7.18;;;18.80;99.90;;;;;;5134444;27;20404;-55
2021/07/21 07:10:13;;;;;;;9.95;7.38;;;19.00;99.90;;;;;;5134405;27;20035;-56
2021/07/21 07:12:39;;;;;;;8.48;6.80;;;19.20;99.90;;;;;;5134074;27;20046;-56
2021/07/21 07:15:06;;;;;;;9.55;6.47;;;19.20;99.90;;;;;;5134240;27;20039;-56
2021/07/21 07:17:32;;;;;;;9.98;6.22;;;19.20;99.90;;;;;;5134235;27;20503;-55
2021/07/21 07:19:58;;;;;;;8.82;6.43;;;19.30;99.90;;;;;;5134186;27;20048;-56
2021/07/21 07:22:24;;;;;;;8.70;5.85;;;19.40;99.90;;;;;;5134200;27;20064;-56
2021/07/21 07:24:50;;;;;;;7.55;5.43;;;19.80;99.90;;;;;;5133850;27;20122;-56
2021/07/21 07:27:16;;;;;;;5.95;4.97;;;20.30;99.90;;;;;;5133981;27;20046;-56
2021/07/21 07:29:41;;;;;;;6.60;5.10;;;20.50;99.90;;;;;;5133990;27;20035;-56
2021/07/21 07:32:08;;;;;;;5.93;5.28;;;20.60;99.90;;;;;;5133968;27;20039;-55
2021/07/21 07:34:34;;;;;;;6.70;5.13;;;20.70;99.90;;;;;;5133832;27;20055;-56
2021/07/21 07:37:00;;;;;;;6.18;4.82;;;20.80;99.90;;;;;;5133818;27;20043;-56
2021/07/21 07:39:26;;;;;;;7.35;5.20;;;20.80;99.90;;;;;;5133819;27;20041;-55
2021/07/21 07:41:52;;;;;;;5.45;4.82;;;20.90;99.90;;;;;;5134040;27;20039;-56
2021/07/21 07:44:18;;;;;;;6.28;5.13;;;21.00;99.90;;;;;;5133768;27;20457;-56
2021/07/21 07:46:44;;;;;;;5.35;4.43;;;21.00;99.90;;;;;;5133664;27;20552;-56
2021/07/21 07:49:10;;;;;;;6.63;4.97;;;21.00;99.90;;;;;;5133634;27;20051;-55
2021/07/21 07:51:36;;;;;;;5.70;4.88;;;21.20;99.90;;;;;;5133576;27;20385;-56
2021/07/21 07:54:03;;;;;;;6.80;4.82;;;21.20;99.90;;;;;;5133439;27;20092;-56
2021/07/21 07:56:32;;;;;;;5.97;5.00;;;21.20;99.90;;;;;;5133540;27;20039;-55
2021/07/21 07:58:58;;;;;;;8.32;4.75;;;21.20;99.90;;;;;;5133403;27;20049;-56
2021/07/21 08:01:25;;;;;;;7.25;5.60;;;21.20;99.90;;;;;;5133571;27;20058;-55
2021/07/21 08:03:51;;;;;;;6.63;5.38;;;21.20;99.90;;;;;;5133371;27;20047;-56
2021/07/21 08:06:16;;;;;;;5.60;4.60;;;21.20;99.90;;;;;;5133603;27;20047;-56
2021/07/21 08:08:42;;;;;;;6.45;5.05;;;21.20;99.90;;;;;;5133213;27;20051;-55
2021/07/21 08:11:09;;;;;;;7.63;5.80;;;21.10;99.90;;;;;;5133519;27;20177;-56
2021/07/21 08:13:35;;;;;;;6.47;5.85;;;21.00;99.90;;;;;;5133132;27;20042;-56
2021/07/21 08:16:00;;;;;;;6.97;5.03;;;21.20;99.90;;;;;;5133086;27;20035;-55
2021/07/21 08:18:26;;;;;;;6.80;5.25;;;21.30;99.90;;;;;;5133149;27;20088;-55
2021/07/21 08:20:52;;;;;;;5.90;4.90;;;21.20;99.90;;;;;;5133066;27;20047;-56
2021/07/21 08:23:18;;;;;;;8.25;6.03;;;21.20;99.90;;;;;;5132945;27;20047;-55
2021/07/21 08:25:44;;;;;;;8.40;5.75;;;21.30;99.90;;;;;;5133179;27;20122;-56
2021/07/21 08:28:14;;;;;;;7.25;5.47;;;21.40;99.90;;;;;;5132987;27;20035;-56
2021/07/21 08:30:43;;;;;;;6.07;5.00;;;21.30;99.90;;;;;;5132999;27;20045;-55
2021/07/21 08:33:09;;;;;;;7.55;5.32;;;21.30;99.90;;;;;;5133100;27;20046;-56
2021/07/21 08:35:35;;;;;;;8.13;6.00;;;21.50;99.90;;;;;;5132144;27;20047;-56
2021/07/21 08:38:02;;;;;;;8.52;6.07;;;21.60;99.90;;;;;;5132948;27;20047;-56
2021/07/21 08:40:29;;;;;;;7.53;5.90;;;21.60;99.90;;;;;;5133097;28;20066;-56
2021/07/21 08:42:56;;;;;;;6.35;5.28;;;21.80;99.90;;;;;;5132899;28;20046;-56
2021/07/21 08:45:22;;;;;;;7.25;5.60;;;21.70;99.90;;;;;;5132759;28;20042;-56
2021/07/21 08:47:48;;;;;;;7.45;6.15;;;21.70;99.90;;;;;;5132723;28;20035;-56
2021/07/21 08:50:14;;;;;;;8.88;6.18;;;21.70;99.90;;;;;;5132795;28;20050;-56
2021/07/21 08:52:40;;;;;;;8.50;6.38;;;21.70;99.90;;;;;;5132702;28;20036;-56
2021/07/21 08:55:11;;;;;;;8.63;5.72;;;21.70;99.90;;;;;;5132802;28;20043;-55
2021/07/21 08:57:38;;;;;;;6.63;5.20;;;21.70;99.90;;;;;;5132677;28;20040;-55
2021/07/21 09:00:16;;;;;;;7.63;5.93;;;21.70;99.90;;;;;;5132738;28;20051;-56
2021/07/21 09:02:46;;;;;;;6.57;5.88;;;21.80;99.90;;;;;;5132671;28;20039;-56
2021/07/21 09:05:17;;;;;;;8.27;5.50;;;21.90;99.90;;;;;;5132608;28;20043;-56
2021/07/21 09:07:43;;;;;;;10.13;6.68;;;22.20;99.90;;;;;;5132691;28;20043;-56
2021/07/21 09:10:18;;;;;;;9.80;5.40;;;22.20;99.90;;;;;;5132745;28;20438;-56
2021/07/21 09:12:46;;;;;;;7.95;5.85;;;22.30;99.90;;;;;;5132544;28;20040;-56
2021/07/21 09:15:14;;;;;;;7.32;6.38;;;22.40;99.90;;;;;;5113722;28;20134;-56
2021/07/21 09:18:07;;;;;;;7.68;5.90;;;22.40;99.90;;;;;;5132839;28;20153;-56
2021/07/21 09:20:54;;;;;;;8.07;6.35;;;22.40;99.90;;;;;;5132649;28;20070;-56
2021/07/21 09:23:19;;;;;;;8.20;6.00;;;22.50;99.90;;;;;;5029196;28;20407;-56
2021/07/21 09:25:45;;;;;;;7.85;5.90;;;22.60;99.90;;;;;;5029165;28;20045;-55
2021/07/21 09:28:12;;;;;;;8.68;6.20;;;22.70;99.90;;;;;;5029224;28;20581;-56
2021/07/21 09:30:44;;;;;;;7.63;6.28;;;22.60;99.90;;;;;;5029398;28;20072;-56
2021/07/21 09:33:12;;;;;;;7.18;5.72;;;22.50;99.90;;;;;;5029213;28;20045;-56
2021/07/21 09:35:44;;;;;;;6.80;5.70;;;22.60;99.90;;;;;;5028896;28;20053;-56
2021/07/21 09:38:13;;;;;;;6.75;6.03;;;22.60;99.90;;;;;;5029201;28;20053;-56
2021/07/21 09:40:43;;;;;;;6.85;5.22;;;22.70;99.90;;;;;;5029097;28;20200;-56
2021/07/21 09:43:12;;;;;;;7.38;5.72;;;22.60;99.90;;;;;;5029097;28;20406;-56
2021/07/21 09:45:39;;;;;;;7.65;5.38;;;22.70;99.90;;;;;;5029155;28;20041;-56
2021/07/21 09:48:05;;;;;;;6.78;4.30;;;22.70;99.90;;;;;;5032318;28;20129;-56
2021/07/21 09:50:35;;;;;;;6.93;5.20;;;22.70;99.90;;;;;;5016252;28;20543;-56
2021/07/21 09:53:05;;;;;;;7.70;5.90;;;22.70;99.90;;;;;;5032908;28;20045;-55
2021/07/21 09:55:34;;;;;;;6.15;5.32;;;22.60;99.90;;;;;;5032687;28;20603;-56
2021/07/21 09:58:08;;;;;;;8.55;4.82;;;22.50;99.90;;;;;;5032509;28;20045;-55
2021/07/21 10:00:46;;;;;;;7.18;5.35;;;22.50;99.90;;;;;;5073147;27;20496;-55
2021/07/21 10:03:19;;;;;;;6.82;5.65;;;22.40;99.90;;;;;;5135740;27;20108;-56
2021/07/21 10:05:54;;;;;;;8.13;5.78;;;22.40;99.90;;;;;;5135791;27;20361;-56
2021/07/21 10:08:49;;;;;;;7.35;6.25;;;22.60;99.90;;;;;;5135687;27;20039;-56
2021/07/21 10:11:26;;;;;;;9.73;6.40;;;22.80;99.90;;;;;;5135465;27;20484;-56
2021/07/21 10:13:55;;;;;;;8.15;6.30;;;23.00;99.90;;;;;;5135472;27;20050;-56
2021/07/21 10:16:43;;;;;;;7.85;5.70;;;23.10;99.90;;;;;;5135651;27;20065;-56
2021/07/21 10:19:33;;;;;;;12.38;6.07;;;23.20;99.90;;;;;;5135558;27;20121;-56
2021/07/21 10:22:00;;;;;;;;;;;23.20;99.90;;;;;;5135716;27;20050;-56
2021/07/21 10:24:34;;;;;;;8.13;5.88;;;23.10;99.90;;;;;;5135136;27;20375;-55
2021/07/21 10:27:01;;;;;;;10.40;6.20;;;23.20;99.90;;;;;;5135281;27;20087;-56
2021/07/21 10:29:27;;;;;;;10.93;7.10;;;23.30;99.90;;;;;;5135116;27;20484;-56
2021/07/21 10:31:53;;;;;;;6.03;5.45;;;23.30;99.90;;;;;;5135314;27;20051;-55
2021/07/21 10:34:20;;;;;;;6.93;6.00;;;23.40;99.90;;;;;;5135357;27;20481;-56
2021/07/21 10:36:48;;;;;;;8.52;6.68;;;23.40;99.90;;;;;;5135348;27;20127;-56
2021/07/21 10:39:15;;;;;;;7.55;6.45;;;23.60;99.90;;;;;;5135487;27;20103;-56
2021/07/21 10:41:42;;;;;;;7.95;6.45;;;23.70;99.90;;;;;;5135105;27;20046;-56
2021/07/21 10:44:13;;;;;;;9.27;6.40;;;23.70;99.90;;;;;;5135025;27;20092;-56
2021/07/21 10:46:41;;;;;;;7.85;6.85;;;23.80;99.90;;;;;;5134961;27;20039;-56
2021/07/21 10:49:41;;;;;;;7.85;6.18;;;23.90;99.90;;;;;;5134755;27;20136;-56
2021/07/21 11:00:15;;;;;;;7.00;6.13;;;23.70;99.90;;;;;;5134499;27;20419;-56
2021/07/21 11:02:43;;;;;;;8.18;6.40;;;23.60;99.90;;;;;;5134596;27;20048;-57
2021/07/21 11:05:37;;;;;;;7.93;6.20;;;23.50;99.90;;;;;;5134671;27;20034;-56
2021/07/21 11:08:05;;;;;;;9.30;6.70;;;23.30;99.90;;;;;;5134199;27;20126;-56
2021/07/21 11:10:37;;;;;;;9.68;7.60;;;23.30;99.90;;;;;;5134500;27;20035;-56
2021/07/21 11:13:05;;;;;;;9.48;6.38;;;23.20;99.90;;;;;;5134663;27;20047;-55
2021/07/21 11:15:47;;;;;;;7.85;7.00;;;23.30;99.90;;;;;;5134246;27;20039;-56
2021/07/21 11:18:22;;;;;;;11.52;8.07;;;23.30;99.90;;;;;;5115954;27;20423;-56
2021/07/21 11:20:58;;;;;;;12.65;8.10;;;23.40;99.90;;;;;;5134439;27;20053;-56
2021/07/21 11:23:51;;;;;;;8.82;6.65;;;23.30;99.90;;;;;;5134231;27;20043;-56
2021/07/21 11:26:50;;;;;;;9.73;6.82;;;23.40;99.90;;;;;;5134085;27;20039;-56
2021/07/21 11:29:27;;;;;;;12.75;7.28;;;23.40;99.90;;;;;;5030975;28;20545;-56
2021/07/21 11:32:16;;;;;;;11.88;8.25;;;23.40;99.90;;;;;;5014278;28;20053;-56
2021/07/21 11:34:42;;;;;;;11.07;7.30;;;23.20;99.90;;;;;;4991089;28;20056;-56
2021/07/21 11:37:25;;;;;;;8.55;6.68;;;23.30;99.90;;;;;;4991289;28;20368;-56
2021/07/21 11:39:56;;;;;;;10.80;6.93;;;23.40;99.90;;;;;;4991241;28;20042;-56
2021/07/21 11:42:30;;;;;;;8.48;6.03;;;23.40;99.90;;;;;;4991087;28;20054;-56
2021/07/21 11:45:05;;;;;;;7.18;5.78;;;23.30;99.90;;;;;;4991116;28;20143;-56
2021/07/21 11:47:35;;;;;;;6.55;5.95;;;23.30;99.90;;;;;;4991151;28;20444;-56
2021/07/21 11:50:12;;;;;;;8.27;7.18;;;23.20;99.90;;;;;;4974940;28;20050;-56
2021/07/21 11:52:38;;;;;;;9.13;7.53;;;23.10;99.90;;;;;;4990984;28;20142;-56
2021/07/21 11:55:05;;;;;;;8.07;6.05;;;23.10;99.90;;;;;;4990924;28;20634;-56
2021/07/21 11:57:31;;;;;;;7.20;6.45;;;23.10;99.90;;;;;;4990963;28;20132;-56
2021/07/21 12:00:00;;;;;;;7.05;6.07;;;23.40;99.90;;;;;;4990880;28;20129;-56
2021/07/21 12:02:26;;;;;;;9.30;6.47;;;23.60;99.90;;;;;;4990957;28;20054;-56
2021/07/21 12:04:57;;;;;;;9.90;7.18;;;23.70;99.90;;;;;;5043038;27;20059;-56
2021/07/21 12:07:30;;;;;;;7.75;6.28;;;23.70;99.90;;;;;;5133361;27;20068;-55
2021/07/21 12:09:56;;;;;;;9.52;8.30;;;23.70;99.90;;;;;;5118592;27;20036;-60
2021/07/21 12:12:26;;;;;;;10.35;7.25;;;23.60;99.90;;;;;;5104840;28;20503;-60
2021/07/21 12:14:55;;;;;;;8.85;7.13;;;23.50;99.90;;;;;;5066230;28;20050;-61
2021/07/21 12:17:23;;;;;;;8.02;6.50;;;23.40;99.90;;;;;;5107022;28;20594;-56
2021/07/21 12:19:55;;;;;;;8.20;7.10;;;23.40;99.90;;;;;;5108651;28;20131;-60
2021/07/21 12:22:21;;;;;;;9.48;8.15;;;23.40;99.90;;;;;;5104492;28;20439;-56
2021/07/21 12:24:50;;;;;;;13.55;7.78;;;23.40;99.90;;;;;;5112429;28;20046;-60
2021/07/21 12:27:30;;;;;;;8.80;6.35;;;23.30;99.90;;;;;;5111983;28;20036;-61
2021/07/21 12:29:58;;;;;;;10.48;6.90;;;23.30;99.90;;;;;;5104953;28;20381;-61
2021/07/21 12:32:25;;;;;;;7.57;5.93;;;23.20;99.90;;;;;;5109893;28;20063;-56
2021/07/21 12:34:52;;;;;;;9.65;6.93;;;23.30;99.90;;;;;;5109354;28;20035;-59
2021/07/21 12:37:27;;;;;;;6.17;5.50;;;23.30;99.90;;;;;;5108426;28;20047;-61
2021/07/21 12:39:54;;;;;;;9.95;6.97;;;23.20;99.90;;;;;;5109251;28;20074;-60
2021/07/21 12:42:24;;;;;;;7.68;6.68;;;23.20;99.90;;;;;;5109943;28;20062;-60
2021/07/21 12:44:51;;;;;;;7.22;6.25;;;23.10;99.90;;;;;;5093173;28;20113;-56
2021/07/21 12:47:28;;;;;;;8.13;6.35;;;23.00;99.90;;;;;;5093977;28;20054;-61
2021/07/21 12:50:03;;;;;;;12.35;6.70;;;23.00;99.90;;;;;;5093460;28;20063;-60
2021/07/21 12:52:34;;;;;;;9.48;5.82;;;23.00;99.90;;;;;;5108556;28;20461;-61
2021/07/21 12:55:04;;;;;;;9.18;6.75;;;23.00;99.90;;;;;;5109073;28;20046;-60
2021/07/21 12:57:34;;;;;;;12.63;7.03;;;23.00;99.90;;;;;;5108676;28;20448;-56